Blossomfield, United Kingdom
Current Conditions -  °F | °C
As of 9:50 AM on Tuesday 21 Oct 2014 (Local Time) from EGBB Reporting Station
Few Clouds Few Clouds  
Wind Chill: 52°   Ceiling: Unl
Heat Index: 52°   Visibility: 6mi
Dew Point: 39°   Wind: 17mph
Humidity: 62%   Direction: 270°W
Pressure: 29.56"   Gusts: 29mph
Location:  52.4°N, 1.85°W
Report Text: EGBB 210850Z 27015G25KT 9999 FEW034 11/04 Q1001
Loading
Personal Weather Stations






























Interactive Weather Map
Tropical Storm Tracking
New forecast layout! Learn more

10-Day Weather Forecast

Advertisements
Track Severe Weather on mobile